Mekhanik Pogodin — UBFH6 — position and weather

sailwx.info

Track history (hours):
 
Tides and Currents Weather Stations Pressure Air Temp Water Temp Dewpoint Dewpoint Depression Visibility Wind Speed Wind Dir Waves Ship Positions

Mekhanik Pogodin

Last reported at 2015-Jan-27 09:18 UTC. Time now 2015-Jan-28 09:14 UTC.
Position N 43°51' E 034°19'.

Length 141 m; draft 3.2 m.

Type: Ship. MMSI: 273354720.

Date/timePositionNaut miles runAvg speedWind from/ knotsBaromVisibWave heightAir tempDewpointWater temp
2015-Jan-27 09:18N 43°51' E 034°19'8 9.4
2015-Jan-27 08:27N 43°55' E 034°28'9 9.2
2015-Jan-27 07:26N 43°60' E 034°39'19 9.6
2015-Jan-27 05:30N 44°10' E 035°01'  
2015-Jan-19 08:10N 44°46' E 036°21'7 9.4
2015-Jan-19 07:27N 44°43' E 036°12'8 9.1
2015-Jan-19 06:32N 44°40' E 036°02'9 8.9
2015-Jan-19 05:30N 44°36' E 035°50'21 9.1
2015-Jan-19 03:14N 44°26' E 035°24'6 9.3
2015-Jan-19 02:33N 44°24' E 035°16'9 9.1
2015-Jan-19 01:32N 44°20' E 035°04'9 9.2
2015-Jan-19 00:31N 44°16' E 034°53'22 9.3
2015-Jan-18 22:10N 44°06' E 034°26'  
Track history (hours):
 
Tides and Currents Weather Stations Pressure Air Temp Water Temp Dewpoint Dewpoint Depression Visibility Wind Speed Wind Dir Waves Ship Positions

Mekhanik Pogodin

Last reported at 2015-Jan-27 09:18 UTC. Time now 2015-Jan-28 09:14 UTC.
Position N 43°51' E 034°19'.

Length 141 m; draft 3.2 m.

Type: Ship. MMSI: 273354720.

Date/timePositionNaut miles runAvg speedWind from/ knotsBaromVisibWave heightAir tempDewpointWater temp
2015-Jan-27 09:18N 43°51' E 034°19'8 9.4
2015-Jan-27 08:27N 43°55' E 034°28'9 9.2
2015-Jan-27 07:26N 43°60' E 034°39'19 9.6
2015-Jan-27 05:30N 44°10' E 035°01'  
2015-Jan-19 08:10N 44°46' E 036°21'7 9.4
2015-Jan-19 07:27N 44°43' E 036°12'8 9.1
2015-Jan-19 06:32N 44°40' E 036°02'9 8.9
2015-Jan-19 05:30N 44°36' E 035°50'21 9.1
2015-Jan-19 03:14N 44°26' E 035°24'6 9.3
2015-Jan-19 02:33N 44°24' E 035°16'9 9.1
2015-Jan-19 01:32N 44°20' E 035°04'9 9.2
2015-Jan-19 00:31N 44°16' E 034°53'22 9.3
2015-Jan-18 22:10N 44°06' E 034°26'  

Dump ship's entire track history